sensor_id;sensor_type;location;lat;lon;timestamp;P1;durP1;ratioP1;P2;durP2;ratioP2
75096;SDS011;63684;47.964;11.186;2023-10-31T00:00:05;1.47;;;0.40;;
75096;SDS011;63684;47.964;11.186;2023-10-31T00:02:31;0.27;;;0.27;;
75096;SDS011;63684;47.964;11.186;2023-10-31T00:04:57;0.40;;;0.40;;
75096;SDS011;63684;47.964;11.186;2023-10-31T00:07:22;1.23;;;0.40;;
75096;SDS011;63684;47.964;11.186;2023-10-31T00:09:48;0.93;;;0.40;;
75096;SDS011;63684;47.964;11.186;2023-10-31T00:12:13;0.20;;;0.20;;
75096;SDS011;63684;47.964;11.186;2023-10-31T00:14:39;0.70;;;0.40;;
75096;SDS011;63684;47.964;11.186;2023-10-31T00:17:04;1.23;;;0.30;;
75096;SDS011;63684;47.964;11.186;2023-10-31T00:19:30;0.30;;;0.30;;
75096;SDS011;63684;47.964;11.186;2023-10-31T00:21:55;0.90;;;0.47;;
75096;SDS011;63684;47.964;11.186;2023-10-31T00:24:21;0.30;;;0.30;;
75096;SDS011;63684;47.964;11.186;2023-10-31T00:26:46;4.33;;;0.40;;
75096;SDS011;63684;47.964;11.186;2023-10-31T00:29:12;0.30;;;0.30;;
75096;SDS011;63684;47.964;11.186;2023-10-31T00:31:38;0.40;;;0.40;;
75096;SDS011;63684;47.964;11.186;2023-10-31T00:34:07;0.20;;;0.20;;
75096;SDS011;63684;47.964;11.186;2023-10-31T00:36:33;0.23;;;0.23;;
75096;SDS011;63684;47.964;11.186;2023-10-31T00:38:58;0.30;;;0.30;;
75096;SDS011;63684;47.964;11.186;2023-10-31T00:41:24;1.13;;;0.40;;
75096;SDS011;63684;47.964;11.186;2023-10-31T00:43:49;0.73;;;0.40;;
75096;SDS011;63684;47.964;11.186;2023-10-31T00:46:14;0.23;;;0.23;;
75096;SDS011;63684;47.964;11.186;2023-10-31T00:48:40;0.43;;;0.40;;
75096;SDS011;63684;47.964;11.186;2023-10-31T00:51:06;0.27;;;0.20;;
75096;SDS011;63684;47.964;11.186;2023-10-31T00:53:32;0.30;;;0.30;;
75096;SDS011;63684;47.964;11.186;2023-10-31T00:55:57;0.80;;;0.23;;
75096;SDS011;63684;47.964;11.186;2023-10-31T00:58:23;1.07;;;0.30;;
75096;SDS011;63684;47.964;11.186;2023-10-31T01:00:48;0.47;;;0.47;;
75096;SDS011;63684;47.964;11.186;2023-10-31T01:03:14;0.27;;;0.27;;
75096;SDS011;63684;47.964;11.186;2023-10-31T01:05:39;0.30;;;0.30;;
75096;SDS011;63684;47.964;11.186;2023-10-31T01:08:05;0.27;;;0.27;;
75096;SDS011;63684;47.964;11.186;2023-10-31T01:10:31;0.30;;;0.30;;
75096;SDS011;63684;47.964;11.186;2023-10-31T01:12:57;1.03;;;0.20;;
75096;SDS011;63684;47.964;11.186;2023-10-31T01:15:22;1.53;;;0.37;;
75096;SDS011;63684;47.964;11.186;2023-10-31T01:17:48;0.30;;;0.30;;
75096;SDS011;63684;47.964;11.186;2023-10-31T01:20:13;0.27;;;0.27;;
75096;SDS011;63684;47.964;11.186;2023-10-31T01:22:39;2.33;;;0.40;;
75096;SDS011;63684;47.964;11.186;2023-10-31T01:25:04;0.30;;;0.30;;
75096;SDS011;63684;47.964;11.186;2023-10-31T01:27:30;2.63;;;0.30;;
75096;SDS011;63684;47.964;11.186;2023-10-31T01:29:56;0.43;;;0.30;;
75096;SDS011;63684;47.964;11.186;2023-10-31T01:32:22;0.40;;;0.40;;
75096;SDS011;63684;47.964;11.186;2023-10-31T01:34:47;0.77;;;0.20;;
75096;SDS011;63684;47.964;11.186;2023-10-31T01:37:13;0.20;;;0.20;;
75096;SDS011;63684;47.964;11.186;2023-10-31T01:39:39;0.20;;;0.20;;
75096;SDS011;63684;47.964;11.186;2023-10-31T01:42:05;0.30;;;0.20;;
75096;SDS011;63684;47.964;11.186;2023-10-31T01:44:31;0.20;;;0.20;;
75096;SDS011;63684;47.964;11.186;2023-10-31T01:46:56;0.20;;;0.20;;
75096;SDS011;63684;47.964;11.186;2023-10-31T01:49:22;0.30;;;0.30;;
75096;SDS011;63684;47.964;11.186;2023-10-31T01:51:47;1.33;;;0.50;;
75096;SDS011;63684;47.964;11.186;2023-10-31T01:54:13;7.77;;;0.43;;
75096;SDS011;63684;47.964;11.186;2023-10-31T01:56:39;2.17;;;0.50;;
75096;SDS011;63684;47.964;11.186;2023-10-31T01:59:06;2.93;;;1.03;;
75096;SDS011;63684;47.964;11.186;2023-10-31T02:01:32;2.63;;;1.40;;
75096;SDS011;63684;47.964;11.186;2023-10-31T02:03:58;1.23;;;1.00;;
75096;SDS011;63684;47.964;11.186;2023-10-31T02:06:24;0.20;;;0.20;;
75096;SDS011;63684;47.964;11.186;2023-10-31T02:08:49;0.40;;;0.40;;
75096;SDS011;63684;47.964;11.186;2023-10-31T02:11:15;1.03;;;0.70;;
75096;SDS011;63684;47.964;11.186;2023-10-31T02:13:40;0.30;;;0.30;;
75096;SDS011;63684;47.964;11.186;2023-10-31T02:16:06;0.60;;;0.30;;
75096;SDS011;63684;47.964;11.186;2023-10-31T02:18:33;0.20;;;0.20;;
75096;SDS011;63684;47.964;11.186;2023-10-31T02:20:59;0.20;;;0.20;;
75096;SDS011;63684;47.964;11.186;2023-10-31T02:23:24;0.20;;;0.20;;
75096;SDS011;63684;47.964;11.186;2023-10-31T02:25:49;0.50;;;0.50;;
75096;SDS011;63684;47.964;11.186;2023-10-31T02:28:16;0.30;;;0.30;;
75096;SDS011;63684;47.964;11.186;2023-10-31T02:30:43;3.30;;;0.30;;
75096;SDS011;63684;47.964;11.186;2023-10-31T02:33:09;0.40;;;0.40;;
75096;SDS011;63684;47.964;11.186;2023-10-31T02:35:34;0.23;;;0.23;;
75096;SDS011;63684;47.964;11.186;2023-10-31T02:38:00;0.93;;;0.40;;
75096;SDS011;63684;47.964;11.186;2023-10-31T02:40:25;1.40;;;0.30;;
75096;SDS011;63684;47.964;11.186;2023-10-31T02:42:51;0.20;;;0.20;;
75096;SDS011;63684;47.964;11.186;2023-10-31T02:45:16;0.20;;;0.20;;
75096;SDS011;63684;47.964;11.186;2023-10-31T02:47:42;0.20;;;0.20;;
75096;SDS011;63684;47.964;11.186;2023-10-31T02:50:07;0.30;;;0.30;;
75096;SDS011;63684;47.964;11.186;2023-10-31T02:52:33;0.40;;;0.40;;
75096;SDS011;63684;47.964;11.186;2023-10-31T02:54:59;0.50;;;0.20;;
75096;SDS011;63684;47.964;11.186;2023-10-31T02:57:24;1.07;;;0.30;;
75096;SDS011;63684;47.964;11.186;2023-10-31T02:59:50;0.30;;;0.30;;
75096;SDS011;63684;47.964;11.186;2023-10-31T03:02:15;1.53;;;0.40;;
75096;SDS011;63684;47.964;11.186;2023-10-31T03:04:41;1.70;;;0.13;;
75096;SDS011;63684;47.964;11.186;2023-10-31T03:07:06;0.30;;;0.30;;
75096;SDS011;63684;47.964;11.186;2023-10-31T03:09:32;0.10;;;0.10;;
75096;SDS011;63684;47.964;11.186;2023-10-31T03:11:57;0.30;;;0.30;;
75096;SDS011;63684;47.964;11.186;2023-10-31T03:14:22;1.60;;;0.33;;
75096;SDS011;63684;47.964;11.186;2023-10-31T03:16:48;0.30;;;0.30;;
75096;SDS011;63684;47.964;11.186;2023-10-31T03:19:13;0.33;;;0.33;;
75096;SDS011;63684;47.964;11.186;2023-10-31T03:21:39;0.40;;;0.40;;
75096;SDS011;63684;47.964;11.186;2023-10-31T03:24:04;0.30;;;0.30;;
75096;SDS011;63684;47.964;11.186;2023-10-31T03:26:30;0.77;;;0.30;;
75096;SDS011;63684;47.964;11.186;2023-10-31T03:28:55;0.20;;;0.20;;
75096;SDS011;63684;47.964;11.186;2023-10-31T03:31:22;0.47;;;0.40;;
75096;SDS011;63684;47.964;11.186;2023-10-31T03:33:49;2.23;;;0.40;;
75096;SDS011;63684;47.964;11.186;2023-10-31T03:36:14;0.23;;;0.23;;
75096;SDS011;63684;47.964;11.186;2023-10-31T03:38:40;0.50;;;0.50;;
75096;SDS011;63684;47.964;11.186;2023-10-31T03:41:05;1.03;;;0.50;;
75096;SDS011;63684;47.964;11.186;2023-10-31T03:43:31;0.87;;;0.60;;
75096;SDS011;63684;47.964;11.186;2023-10-31T03:45:56;4.00;;;0.50;;
75096;SDS011;63684;47.964;11.186;2023-10-31T03:48:21;1.63;;;0.50;;
75096;SDS011;63684;47.964;11.186;2023-10-31T03:50:47;0.57;;;0.40;;
75096;SDS011;63684;47.964;11.186;2023-10-31T03:53:13;0.37;;;0.30;;
75096;SDS011;63684;47.964;11.186;2023-10-31T03:55:38;1.17;;;0.47;;
75096;SDS011;63684;47.964;11.186;2023-10-31T03:58:04;2.60;;;0.47;;
75096;SDS011;63684;47.964;11.186;2023-10-31T04:00:30;0.47;;;0.47;;
75096;SDS011;63684;47.964;11.186;2023-10-31T04:02:56;1.20;;;0.50;;
75096;SDS011;63684;47.964;11.186;2023-10-31T04:05:21;3.40;;;0.80;;
75096;SDS011;63684;47.964;11.186;2023-10-31T04:07:48;0.93;;;0.47;;
75096;SDS011;63684;47.964;11.186;2023-10-31T04:10:14;1.03;;;0.40;;
75096;SDS011;63684;47.964;11.186;2023-10-31T04:12:40;2.53;;;0.60;;
75096;SDS011;63684;47.964;11.186;2023-10-31T04:15:06;0.73;;;0.40;;
75096;SDS011;63684;47.964;11.186;2023-10-31T04:17:32;0.67;;;0.43;;
75096;SDS011;63684;47.964;11.186;2023-10-31T04:19:57;0.97;;;0.67;;
75096;SDS011;63684;47.964;11.186;2023-10-31T04:22:23;1.33;;;0.50;;
75096;SDS011;63684;47.964;11.186;2023-10-31T04:24:48;0.70;;;0.50;;
75096;SDS011;63684;47.964;11.186;2023-10-31T04:27:14;0.53;;;0.40;;
75096;SDS011;63684;47.964;11.186;2023-10-31T04:29:39;4.23;;;0.60;;
75096;SDS011;63684;47.964;11.186;2023-10-31T04:32:05;1.60;;;0.50;;
75096;SDS011;63684;47.964;11.186;2023-10-31T04:34:31;1.23;;;0.60;;
75096;SDS011;63684;47.964;11.186;2023-10-31T04:36:56;0.83;;;0.60;;
75096;SDS011;63684;47.964;11.186;2023-10-31T04:39:22;0.87;;;0.47;;
75096;SDS011;63684;47.964;11.186;2023-10-31T04:41:47;1.50;;;0.53;;
75096;SDS011;63684;47.964;11.186;2023-10-31T04:44:13;2.90;;;0.63;;
75096;SDS011;63684;47.964;11.186;2023-10-31T04:46:38;1.43;;;0.60;;
75096;SDS011;63684;47.964;11.186;2023-10-31T04:49:04;0.73;;;0.57;;
75096;SDS011;63684;47.964;11.186;2023-10-31T04:51:33;1.43;;;0.40;;
75096;SDS011;63684;47.964;11.186;2023-10-31T04:53:59;1.80;;;0.90;;
75096;SDS011;63684;47.964;11.186;2023-10-31T04:56:25;0.60;;;0.60;;
75096;SDS011;63684;47.964;11.186;2023-10-31T04:58:50;0.57;;;0.50;;
75096;SDS011;63684;47.964;11.186;2023-10-31T05:01:16;0.50;;;0.50;;
75096;SDS011;63684;47.964;11.186;2023-10-31T05:03:41;3.77;;;0.60;;
75096;SDS011;63684;47.964;11.186;2023-10-31T05:06:07;0.80;;;0.60;;
75096;SDS011;63684;47.964;11.186;2023-10-31T05:08:32;0.30;;;0.30;;
75096;SDS011;63684;47.964;11.186;2023-10-31T05:10:58;2.77;;;1.00;;
75096;SDS011;63684;47.964;11.186;2023-10-31T05:13:24;1.80;;;0.50;;
75096;SDS011;63684;47.964;11.186;2023-10-31T05:15:50;1.50;;;0.60;;
75096;SDS011;63684;47.964;11.186;2023-10-31T05:18:16;1.03;;;0.60;;
75096;SDS011;63684;47.964;11.186;2023-10-31T05:20:42;2.67;;;0.90;;
75096;SDS011;63684;47.964;11.186;2023-10-31T05:23:07;0.83;;;0.50;;
75096;SDS011;63684;47.964;11.186;2023-10-31T05:25:33;4.23;;;0.50;;
75096;SDS011;63684;47.964;11.186;2023-10-31T05:27:59;1.63;;;0.60;;
75096;SDS011;63684;47.964;11.186;2023-10-31T05:30:25;1.17;;;0.70;;
75096;SDS011;63684;47.964;11.186;2023-10-31T05:32:50;1.23;;;0.50;;
75096;SDS011;63684;47.964;11.186;2023-10-31T05:35:16;0.97;;;0.60;;
75096;SDS011;63684;47.964;11.186;2023-10-31T05:37:41;0.77;;;0.60;;
75096;SDS011;63684;47.964;11.186;2023-10-31T05:40:07;0.77;;;0.50;;
75096;SDS011;63684;47.964;11.186;2023-10-31T05:42:33;0.70;;;0.60;;
75096;SDS011;63684;47.964;11.186;2023-10-31T05:44:59;2.10;;;0.47;;
75096;SDS011;63684;47.964;11.186;2023-10-31T05:47:24;1.00;;;0.50;;
75096;SDS011;63684;47.964;11.186;2023-10-31T05:49:50;4.27;;;0.80;;
75096;SDS011;63684;47.964;11.186;2023-10-31T05:52:15;0.73;;;0.57;;
75096;SDS011;63684;47.964;11.186;2023-10-31T05:54:41;0.53;;;0.50;;
75096;SDS011;63684;47.964;11.186;2023-10-31T05:57:06;0.73;;;0.60;;
75096;SDS011;63684;47.964;11.186;2023-10-31T05:59:32;1.23;;;0.37;;
75096;SDS011;63684;47.964;11.186;2023-10-31T06:01:58;1.03;;;0.40;;
75096;SDS011;63684;47.964;11.186;2023-10-31T06:04:23;6.57;;;0.80;;
75096;SDS011;63684;47.964;11.186;2023-10-31T06:06:50;0.90;;;0.40;;
75096;SDS011;63684;47.964;11.186;2023-10-31T06:09:16;2.90;;;0.50;;
75096;SDS011;63684;47.964;11.186;2023-10-31T06:11:41;0.40;;;0.40;;
75096;SDS011;63684;47.964;11.186;2023-10-31T06:14:10;0.97;;;0.50;;
75096;SDS011;63684;47.964;11.186;2023-10-31T06:16:40;1.57;;;0.53;;
75096;SDS011;63684;47.964;11.186;2023-10-31T06:19:06;0.90;;;0.30;;
75096;SDS011;63684;47.964;11.186;2023-10-31T06:21:32;0.30;;;0.30;;
75096;SDS011;63684;47.964;11.186;2023-10-31T06:23:57;0.40;;;0.40;;
75096;SDS011;63684;47.964;11.186;2023-10-31T06:26:23;1.80;;;0.50;;
75096;SDS011;63684;47.964;11.186;2023-10-31T06:28:48;0.50;;;0.50;;
75096;SDS011;63684;47.964;11.186;2023-10-31T06:31:14;0.83;;;0.40;;
75096;SDS011;63684;47.964;11.186;2023-10-31T06:33:39;1.00;;;0.60;;
75096;SDS011;63684;47.964;11.186;2023-10-31T06:36:05;1.73;;;0.80;;
75096;SDS011;63684;47.964;11.186;2023-10-31T06:38:32;2.03;;;0.57;;
75096;SDS011;63684;47.964;11.186;2023-10-31T06:40:57;1.83;;;0.50;;
75096;SDS011;63684;47.964;11.186;2023-10-31T06:43:23;2.43;;;0.50;;
75096;SDS011;63684;47.964;11.186;2023-10-31T06:45:48;1.03;;;0.60;;
75096;SDS011;63684;47.964;11.186;2023-10-31T06:48:14;2.57;;;1.00;;
75096;SDS011;63684;47.964;11.186;2023-10-31T06:50:39;2.87;;;1.00;;
75096;SDS011;63684;47.964;11.186;2023-10-31T06:53:04;1.47;;;0.57;;
75096;SDS011;63684;47.964;11.186;2023-10-31T06:55:30;2.20;;;0.70;;
75096;SDS011;63684;47.964;11.186;2023-10-31T06:57:55;0.73;;;0.50;;
75096;SDS011;63684;47.964;11.186;2023-10-31T07:00:21;6.03;;;0.60;;
75096;SDS011;63684;47.964;11.186;2023-10-31T07:02:46;2.23;;;0.60;;
75096;SDS011;63684;47.964;11.186;2023-10-31T07:05:13;2.07;;;0.60;;
75096;SDS011;63684;47.964;11.186;2023-10-31T07:07:39;1.27;;;0.60;;
75096;SDS011;63684;47.964;11.186;2023-10-31T07:10:04;2.00;;;0.60;;
75096;SDS011;63684;47.964;11.186;2023-10-31T07:12:30;2.77;;;0.60;;
75096;SDS011;63684;47.964;11.186;2023-10-31T07:14:56;3.47;;;1.27;;
75096;SDS011;63684;47.964;11.186;2023-10-31T07:17:23;3.70;;;0.93;;
75096;SDS011;63684;47.964;11.186;2023-10-31T07:19:50;2.43;;;0.80;;
75096;SDS011;63684;47.964;11.186;2023-10-31T07:22:15;3.10;;;0.80;;
75096;SDS011;63684;47.964;11.186;2023-10-31T07:24:41;2.13;;;0.80;;
75096;SDS011;63684;47.964;11.186;2023-10-31T07:27:06;2.97;;;0.70;;
75096;SDS011;63684;47.964;11.186;2023-10-31T07:29:31;1.43;;;0.80;;
75096;SDS011;63684;47.964;11.186;2023-10-31T07:31:57;2.27;;;0.77;;
75096;SDS011;63684;47.964;11.186;2023-10-31T07:34:22;2.47;;;0.77;;
75096;SDS011;63684;47.964;11.186;2023-10-31T07:36:48;0.93;;;0.70;;
75096;SDS011;63684;47.964;11.186;2023-10-31T07:39:13;2.03;;;0.83;;
75096;SDS011;63684;47.964;11.186;2023-10-31T07:41:39;4.03;;;0.93;;
75096;SDS011;63684;47.964;11.186;2023-10-31T07:44:09;3.40;;;0.80;;
75096;SDS011;63684;47.964;11.186;2023-10-31T07:46:34;1.73;;;0.60;;
75096;SDS011;63684;47.964;11.186;2023-10-31T07:48:59;5.83;;;0.80;;
75096;SDS011;63684;47.964;11.186;2023-10-31T07:51:25;3.60;;;0.87;;
75096;SDS011;63684;47.964;11.186;2023-10-31T07:53:50;0.90;;;0.70;;
75096;SDS011;63684;47.964;11.186;2023-10-31T07:56:16;1.10;;;0.70;;
75096;SDS011;63684;47.964;11.186;2023-10-31T07:58:50;3.70;;;0.73;;
75096;SDS011;63684;47.964;11.186;2023-10-31T08:01:16;3.67;;;1.10;;
75096;SDS011;63684;47.964;11.186;2023-10-31T08:03:42;1.97;;;0.77;;
75096;SDS011;63684;47.964;11.186;2023-10-31T08:06:08;3.67;;;1.33;;
75096;SDS011;63684;47.964;11.186;2023-10-31T08:08:33;1.60;;;0.70;;
75096;SDS011;63684;47.964;11.186;2023-10-31T08:10:59;1.03;;;0.43;;
75096;SDS011;63684;47.964;11.186;2023-10-31T08:13:25;4.30;;;1.13;;
75096;SDS011;63684;47.964;11.186;2023-10-31T08:15:50;6.70;;;0.73;;
75096;SDS011;63684;47.964;11.186;2023-10-31T08:18:17;4.07;;;0.80;;
75096;SDS011;63684;47.964;11.186;2023-10-31T08:20:49;2.23;;;0.70;;
75096;SDS011;63684;47.964;11.186;2023-10-31T08:23:22;1.30;;;0.70;;
75096;SDS011;63684;47.964;11.186;2023-10-31T08:25:50;2.57;;;0.77;;
75096;SDS011;63684;47.964;11.186;2023-10-31T08:28:15;5.30;;;0.80;;
75096;SDS011;63684;47.964;11.186;2023-10-31T08:30:41;2.13;;;0.77;;
75096;SDS011;63684;47.964;11.186;2023-10-31T08:33:06;2.87;;;0.73;;
75096;SDS011;63684;47.964;11.186;2023-10-31T08:35:32;3.07;;;1.07;;
75096;SDS011;63684;47.964;11.186;2023-10-31T08:37:58;1.37;;;0.70;;
75096;SDS011;63684;47.964;11.186;2023-10-31T08:40:23;2.33;;;0.90;;
75096;SDS011;63684;47.964;11.186;2023-10-31T08:42:49;3.37;;;1.10;;
75096;SDS011;63684;47.964;11.186;2023-10-31T08:45:14;2.17;;;0.70;;
75096;SDS011;63684;47.964;11.186;2023-10-31T08:47:40;7.37;;;1.17;;
75096;SDS011;63684;47.964;11.186;2023-10-31T08:50:06;2.77;;;1.10;;
75096;SDS011;63684;47.964;11.186;2023-10-31T08:52:33;2.00;;;0.67;;
75096;SDS011;63684;47.964;11.186;2023-10-31T08:54:59;2.20;;;0.80;;
75096;SDS011;63684;47.964;11.186;2023-10-31T08:57:25;3.57;;;0.43;;
75096;SDS011;63684;47.964;11.186;2023-10-31T08:59:50;2.63;;;1.00;;
75096;SDS011;63684;47.964;11.186;2023-10-31T09:02:16;3.37;;;1.17;;
75096;SDS011;63684;47.964;11.186;2023-10-31T09:04:41;3.13;;;0.70;;
75096;SDS011;63684;47.964;11.186;2023-10-31T09:07:07;2.03;;;0.70;;
75096;SDS011;63684;47.964;11.186;2023-10-31T09:09:33;1.00;;;0.70;;
75096;SDS011;63684;47.964;11.186;2023-10-31T09:11:58;3.97;;;0.90;;
75096;SDS011;63684;47.964;11.186;2023-10-31T09:14:23;2.10;;;0.90;;
75096;SDS011;63684;47.964;11.186;2023-10-31T09:16:49;3.83;;;1.00;;
75096;SDS011;63684;47.964;11.186;2023-10-31T09:19:15;3.57;;;0.70;;
75096;SDS011;63684;47.964;11.186;2023-10-31T09:21:40;1.00;;;0.60;;
75096;SDS011;63684;47.964;11.186;2023-10-31T09:24:07;2.50;;;1.10;;
75096;SDS011;63684;47.964;11.186;2023-10-31T09:26:33;3.23;;;0.87;;
75096;SDS011;63684;47.964;11.186;2023-10-31T09:28:59;2.97;;;0.90;;
75096;SDS011;63684;47.964;11.186;2023-10-31T09:31:24;1.13;;;0.70;;
75096;SDS011;63684;47.964;11.186;2023-10-31T09:33:50;2.07;;;0.90;;
75096;SDS011;63684;47.964;11.186;2023-10-31T09:36:15;2.70;;;0.60;;
75096;SDS011;63684;47.964;11.186;2023-10-31T09:38:41;1.13;;;0.77;;
75096;SDS011;63684;47.964;11.186;2023-10-31T09:41:06;4.23;;;0.87;;
75096;SDS011;63684;47.964;11.186;2023-10-31T09:43:32;3.63;;;0.70;;
75096;SDS011;63684;47.964;11.186;2023-10-31T09:45:58;4.33;;;1.20;;
75096;SDS011;63684;47.964;11.186;2023-10-31T09:48:25;2.90;;;0.77;;
75096;SDS011;63684;47.964;11.186;2023-10-31T09:50:51;3.47;;;0.90;;
75096;SDS011;63684;47.964;11.186;2023-10-31T09:53:18;1.90;;;0.80;;
75096;SDS011;63684;47.964;11.186;2023-10-31T09:55:43;4.13;;;1.07;;
75096;SDS011;63684;47.964;11.186;2023-10-31T09:58:10;3.43;;;1.60;;
75096;SDS011;63684;47.964;11.186;2023-10-31T10:00:36;4.57;;;1.17;;
75096;SDS011;63684;47.964;11.186;2023-10-31T10:03:03;4.27;;;0.93;;
75096;SDS011;63684;47.964;11.186;2023-10-31T10:05:30;1.50;;;0.80;;
75096;SDS011;63684;47.964;11.186;2023-10-31T10:07:57;2.13;;;0.73;;
75096;SDS011;63684;47.964;11.186;2023-10-31T10:10:23;4.10;;;0.83;;
75096;SDS011;63684;47.964;11.186;2023-10-31T10:12:51;1.53;;;0.77;;
75096;SDS011;63684;47.964;11.186;2023-10-31T10:15:17;3.87;;;0.70;;
75096;SDS011;63684;47.964;11.186;2023-10-31T10:17:48;4.67;;;0.97;;
75096;SDS011;63684;47.964;11.186;2023-10-31T10:20:14;4.67;;;0.70;;
75096;SDS011;63684;47.964;11.186;2023-10-31T10:22:40;2.90;;;1.10;;
75096;SDS011;63684;47.964;11.186;2023-10-31T10:25:10;3.50;;;0.80;;
75096;SDS011;63684;47.964;11.186;2023-10-31T10:27:44;1.20;;;0.60;;
75096;SDS011;63684;47.964;11.186;2023-10-31T10:30:10;4.83;;;0.60;;
75096;SDS011;63684;47.964;11.186;2023-10-31T10:32:36;2.70;;;0.60;;
75096;SDS011;63684;47.964;11.186;2023-10-31T10:35:02;1.40;;;0.73;;
75096;SDS011;63684;47.964;11.186;2023-10-31T10:37:29;12.10;;;1.00;;
75096;SDS011;63684;47.964;11.186;2023-10-31T10:39:56;3.07;;;1.20;;
75096;SDS011;63684;47.964;11.186;2023-10-31T10:42:35;4.33;;;1.10;;
75096;SDS011;63684;47.964;11.186;2023-10-31T10:45:13;3.23;;;0.70;;
75096;SDS011;63684;47.964;11.186;2023-10-31T10:47:41;3.23;;;1.00;;
75096;SDS011;63684;47.964;11.186;2023-10-31T10:50:11;4.57;;;1.10;;
75096;SDS011;63684;47.964;11.186;2023-10-31T10:52:41;3.30;;;1.10;;
75096;SDS011;63684;47.964;11.186;2023-10-31T10:55:13;2.80;;;1.20;;
75096;SDS011;63684;47.964;11.186;2023-10-31T10:57:43;4.43;;;2.20;;
75096;SDS011;63684;47.964;11.186;2023-10-31T11:00:13;2.70;;;1.13;;
75096;SDS011;63684;47.964;11.186;2023-10-31T11:02:40;2.63;;;1.00;;
75096;SDS011;63684;47.964;11.186;2023-10-31T11:05:09;7.33;;;1.33;;
75096;SDS011;63684;47.964;11.186;2023-10-31T11:07:36;1.83;;;0.83;;
75096;SDS011;63684;47.964;11.186;2023-10-31T11:10:02;2.80;;;0.77;;
75096;SDS011;63684;47.964;11.186;2023-10-31T11:12:30;2.70;;;0.57;;
75096;SDS011;63684;47.964;11.186;2023-10-31T11:14:59;1.40;;;0.60;;
75096;SDS011;63684;47.964;11.186;2023-10-31T11:17:27;4.17;;;1.00;;
75096;SDS011;63684;47.964;11.186;2023-10-31T11:19:54;2.00;;;1.10;;
75096;SDS011;63684;47.964;11.186;2023-10-31T11:22:20;4.33;;;1.00;;
75096;SDS011;63684;47.964;11.186;2023-10-31T11:24:48;2.30;;;0.60;;
75096;SDS011;63684;47.964;11.186;2023-10-31T11:27:14;0.67;;;0.60;;
75096;SDS011;63684;47.964;11.186;2023-10-31T11:29:39;0.90;;;0.73;;
75096;SDS011;63684;47.964;11.186;2023-10-31T11:32:11;0.87;;;0.73;;
75096;SDS011;63684;47.964;11.186;2023-10-31T11:34:38;2.30;;;0.80;;
75096;SDS011;63684;47.964;11.186;2023-10-31T11:37:26;2.90;;;0.80;;
75096;SDS011;63684;47.964;11.186;2023-10-31T11:40:21;0.73;;;0.40;;
75096;SDS011;63684;47.964;11.186;2023-10-31T11:42:50;1.70;;;0.60;;
75096;SDS011;63684;47.964;11.186;2023-10-31T11:47:54;2.13;;;0.77;;
75096;SDS011;63684;47.964;11.186;2023-10-31T11:50:20;1.33;;;0.60;;
75096;SDS011;63684;47.964;11.186;2023-10-31T11:52:57;0.90;;;0.30;;
75096;SDS011;63684;47.964;11.186;2023-10-31T11:55:33;1.70;;;0.40;;
75096;SDS011;63684;47.964;11.186;2023-10-31T11:58:16;0.30;;;0.30;;
75096;SDS011;63684;47.964;11.186;2023-10-31T12:00:44;1.20;;;0.30;;
75096;SDS011;63684;47.964;11.186;2023-10-31T12:03:15;1.60;;;0.40;;
75096;SDS011;63684;47.964;11.186;2023-10-31T12:05:50;0.70;;;0.50;;
75096;SDS011;63684;47.964;11.186;2023-10-31T12:08:24;1.70;;;0.70;;
75096;SDS011;63684;47.964;11.186;2023-10-31T12:11:15;0.70;;;0.53;;
75096;SDS011;63684;47.964;11.186;2023-10-31T12:14:01;1.20;;;0.40;;
75096;SDS011;63684;47.964;11.186;2023-10-31T12:16:31;0.50;;;0.50;;
75096;SDS011;63684;47.964;11.186;2023-10-31T12:18:58;0.53;;;0.53;;
75096;SDS011;63684;47.964;11.186;2023-10-31T12:24:11;0.73;;;0.60;;
75096;SDS011;63684;47.964;11.186;2023-10-31T12:26:38;1.10;;;0.60;;
75096;SDS011;63684;47.964;11.186;2023-10-31T12:29:07;2.20;;;0.60;;
75096;SDS011;63684;47.964;11.186;2023-10-31T12:31:50;0.83;;;0.50;;
75096;SDS011;63684;47.964;11.186;2023-10-31T12:34:19;1.23;;;0.50;;
75096;SDS011;63684;47.964;11.186;2023-10-31T12:36:46;3.43;;;0.60;;
75096;SDS011;63684;47.964;11.186;2023-10-31T12:39:13;0.67;;;0.50;;
75096;SDS011;63684;47.964;11.186;2023-10-31T12:41:39;0.80;;;0.40;;
75096;SDS011;63684;47.964;11.186;2023-10-31T12:44:06;0.93;;;0.40;;
75096;SDS011;63684;47.964;11.186;2023-10-31T12:46:33;0.67;;;0.57;;
75096;SDS011;63684;47.964;11.186;2023-10-31T12:49:00;0.40;;;0.37;;
75096;SDS011;63684;47.964;11.186;2023-10-31T12:51:25;0.40;;;0.40;;
75096;SDS011;63684;47.964;11.186;2023-10-31T12:53:51;3.33;;;0.50;;
75096;SDS011;63684;47.964;11.186;2023-10-31T12:59:08;0.97;;;0.40;;
75096;SDS011;63684;47.964;11.186;2023-10-31T13:01:34;0.50;;;0.30;;
75096;SDS011;63684;47.964;11.186;2023-10-31T13:04:01;0.80;;;0.30;;
75096;SDS011;63684;47.964;11.186;2023-10-31T13:06:30;1.07;;;0.47;;
75096;SDS011;63684;47.964;11.186;2023-10-31T13:08:56;0.70;;;0.40;;
75096;SDS011;63684;47.964;11.186;2023-10-31T13:11:22;1.03;;;0.57;;
75096;SDS011;63684;47.964;11.186;2023-10-31T13:13:51;0.70;;;0.33;;
75096;SDS011;63684;47.964;11.186;2023-10-31T13:16:18;1.30;;;0.60;;
75096;SDS011;63684;47.964;11.186;2023-10-31T13:18:44;0.30;;;0.30;;
75096;SDS011;63684;47.964;11.186;2023-10-31T13:21:09;0.80;;;0.40;;
75096;SDS011;63684;47.964;11.186;2023-10-31T13:23:36;1.13;;;0.60;;
75096;SDS011;63684;47.964;11.186;2023-10-31T13:26:03;1.47;;;0.50;;
75096;SDS011;63684;47.964;11.186;2023-10-31T13:28:29;1.60;;;0.40;;
75096;SDS011;63684;47.964;11.186;2023-10-31T13:30:57;0.50;;;0.37;;
75096;SDS011;63684;47.964;11.186;2023-10-31T13:33:22;3.83;;;1.00;;
75096;SDS011;63684;47.964;11.186;2023-10-31T13:35:48;2.17;;;0.50;;
75096;SDS011;63684;47.964;11.186;2023-10-31T13:38:13;0.40;;;0.40;;
75096;SDS011;63684;47.964;11.186;2023-10-31T13:40:39;0.67;;;0.40;;
75096;SDS011;63684;47.964;11.186;2023-10-31T13:43:05;0.67;;;0.50;;
75096;SDS011;63684;47.964;11.186;2023-10-31T13:45:30;0.30;;;0.30;;
75096;SDS011;63684;47.964;11.186;2023-10-31T13:47:56;0.77;;;0.40;;
75096;SDS011;63684;47.964;11.186;2023-10-31T13:50:21;1.70;;;0.50;;
75096;SDS011;63684;47.964;11.186;2023-10-31T13:52:48;2.87;;;0.50;;
75096;SDS011;63684;47.964;11.186;2023-10-31T13:55:14;1.80;;;0.50;;
75096;SDS011;63684;47.964;11.186;2023-10-31T13:57:39;2.10;;;0.83;;
75096;SDS011;63684;47.964;11.186;2023-10-31T14:00:05;1.20;;;0.80;;
75096;SDS011;63684;47.964;11.186;2023-10-31T14:02:38;0.40;;;0.40;;
75096;SDS011;63684;47.964;11.186;2023-10-31T14:05:04;2.30;;;0.50;;
75096;SDS011;63684;47.964;11.186;2023-10-31T14:07:30;2.70;;;0.60;;
75096;SDS011;63684;47.964;11.186;2023-10-31T14:09:55;0.73;;;0.50;;
75096;SDS011;63684;47.964;11.186;2023-10-31T14:12:22;1.50;;;0.60;;
75096;SDS011;63684;47.964;11.186;2023-10-31T14:14:48;1.90;;;0.77;;
75096;SDS011;63684;47.964;11.186;2023-10-31T14:17:15;2.17;;;0.60;;
75096;SDS011;63684;47.964;11.186;2023-10-31T14:19:42;0.57;;;0.50;;
75096;SDS011;63684;47.964;11.186;2023-10-31T14:22:11;1.60;;;0.57;;
75096;SDS011;63684;47.964;11.186;2023-10-31T14:24:37;1.67;;;0.80;;
75096;SDS011;63684;47.964;11.186;2023-10-31T14:27:02;3.50;;;0.97;;
75096;SDS011;63684;47.964;11.186;2023-10-31T14:29:28;1.67;;;0.70;;
75096;SDS011;63684;47.964;11.186;2023-10-31T14:31:53;1.93;;;0.70;;
75096;SDS011;63684;47.964;11.186;2023-10-31T14:34:19;1.27;;;0.50;;
75096;SDS011;63684;47.964;11.186;2023-10-31T14:36:46;1.30;;;0.70;;